sensor_id;sensor_type;location;lat;lon;timestamp;P1;durP1;ratioP1;P2;durP2;ratioP2
77117;SDS011;66072;50.238;19.228;2023-05-02T00:02:20;9.60;;;6.10;;
77117;SDS011;66072;50.238;19.228;2023-05-02T00:04:48;12.80;;;5.90;;
77117;SDS011;66072;50.238;19.228;2023-05-02T00:07:16;13.30;;;7.10;;
77117;SDS011;66072;50.238;19.228;2023-05-02T00:09:43;10.40;;;6.90;;
77117;SDS011;66072;50.238;19.228;2023-05-02T00:12:11;16.80;;;10.40;;
77117;SDS011;66072;50.238;19.228;2023-05-02T00:14:39;21.50;;;13.10;;
77117;SDS011;66072;50.238;19.228;2023-05-02T00:17:06;17.90;;;11.90;;
77117;SDS011;66072;50.238;19.228;2023-05-02T00:19:37;18.30;;;10.80;;
77117;SDS011;66072;50.238;19.228;2023-05-02T00:22:05;16.50;;;11.50;;
77117;SDS011;66072;50.238;19.228;2023-05-02T00:24:33;18.80;;;13.10;;
77117;SDS011;66072;50.238;19.228;2023-05-02T00:27:00;17.40;;;11.40;;
77117;SDS011;66072;50.238;19.228;2023-05-02T00:29:28;15.00;;;9.10;;
77117;SDS011;66072;50.238;19.228;2023-05-02T00:31:55;14.60;;;8.60;;
77117;SDS011;66072;50.238;19.228;2023-05-02T00:34:27;14.00;;;8.80;;
77117;SDS011;66072;50.238;19.228;2023-05-02T00:36:56;14.30;;;8.70;;
77117;SDS011;66072;50.238;19.228;2023-05-02T00:39:24;15.90;;;9.90;;
77117;SDS011;66072;50.238;19.228;2023-05-02T00:41:58;19.90;;;13.90;;
77117;SDS011;66072;50.238;19.228;2023-05-02T00:44:25;24.30;;;14.90;;
77117;SDS011;66072;50.238;19.228;2023-05-02T00:46:54;23.60;;;13.20;;
77117;SDS011;66072;50.238;19.228;2023-05-02T00:49:22;24.30;;;13.90;;
77117;SDS011;66072;50.238;19.228;2023-05-02T00:51:50;19.90;;;13.20;;
77117;SDS011;66072;50.238;19.228;2023-05-02T00:54:17;20.50;;;13.20;;
77117;SDS011;66072;50.238;19.228;2023-05-02T00:56:45;21.90;;;14.40;;
77117;SDS011;66072;50.238;19.228;2023-05-02T00:59:13;21.20;;;14.80;;
77117;SDS011;66072;50.238;19.228;2023-05-02T01:02:02;23.10;;;14.50;;
77117;SDS011;66072;50.238;19.228;2023-05-02T01:10:44;16.70;;;10.80;;
77117;SDS011;66072;50.238;19.228;2023-05-02T01:13:19;15.00;;;9.70;;
77117;SDS011;66072;50.238;19.228;2023-05-02T01:15:49;14.70;;;9.70;;
77117;SDS011;66072;50.238;19.228;2023-05-02T01:18:20;14.70;;;8.40;;
77117;SDS011;66072;50.238;19.228;2023-05-02T01:20:56;13.80;;;9.50;;
77117;SDS011;66072;50.238;19.228;2023-05-02T01:23:31;13.70;;;9.30;;
77117;SDS011;66072;50.238;19.228;2023-05-02T01:26:09;13.00;;;9.10;;
77117;SDS011;66072;50.238;19.228;2023-05-02T01:29:01;13.00;;;9.60;;
77117;SDS011;66072;50.238;19.228;2023-05-02T01:31:33;17.30;;;12.40;;
77117;SDS011;66072;50.238;19.228;2023-05-02T01:34:07;27.00;;;18.80;;
77117;SDS011;66072;50.238;19.228;2023-05-02T01:36:37;20.40;;;12.70;;
77117;SDS011;66072;50.238;19.228;2023-05-02T01:39:09;21.20;;;13.50;;
77117;SDS011;66072;50.238;19.228;2023-05-02T01:41:39;20.80;;;13.10;;
77117;SDS011;66072;50.238;19.228;2023-05-02T01:44:08;18.00;;;11.90;;
77117;SDS011;66072;50.238;19.228;2023-05-02T01:46:39;17.30;;;12.60;;
77117;SDS011;66072;50.238;19.228;2023-05-02T01:49:08;18.70;;;12.10;;
77117;SDS011;66072;50.238;19.228;2023-05-02T01:51:40;16.90;;;12.40;;
77117;SDS011;66072;50.238;19.228;2023-05-02T01:54:12;15.60;;;11.50;;
77117;SDS011;66072;50.238;19.228;2023-05-02T01:59:10;15.70;;;10.80;;
77117;SDS011;66072;50.238;19.228;2023-05-02T02:01:40;19.60;;;11.70;;
77117;SDS011;66072;50.238;19.228;2023-05-02T02:04:10;16.90;;;11.20;;
77117;SDS011;66072;50.238;19.228;2023-05-02T02:06:42;15.10;;;10.20;;
77117;SDS011;66072;50.238;19.228;2023-05-02T02:09:13;15.30;;;10.10;;
77117;SDS011;66072;50.238;19.228;2023-05-02T02:11:56;15.40;;;9.50;;
77117;SDS011;66072;50.238;19.228;2023-05-02T02:14:32;16.70;;;10.30;;
77117;SDS011;66072;50.238;19.228;2023-05-02T02:17:04;14.70;;;9.70;;
77117;SDS011;66072;50.238;19.228;2023-05-02T02:19:38;13.00;;;8.90;;
77117;SDS011;66072;50.238;19.228;2023-05-02T02:22:08;16.30;;;10.60;;
77117;SDS011;66072;50.238;19.228;2023-05-02T02:24:39;16.10;;;9.80;;
77117;SDS011;66072;50.238;19.228;2023-05-02T02:27:07;13.30;;;9.80;;
77117;SDS011;66072;50.238;19.228;2023-05-02T02:29:35;16.70;;;10.30;;
77117;SDS011;66072;50.238;19.228;2023-05-02T02:32:03;17.30;;;11.70;;
77117;SDS011;66072;50.238;19.228;2023-05-02T02:34:30;19.10;;;12.00;;
77117;SDS011;66072;50.238;19.228;2023-05-02T02:37:14;17.20;;;11.90;;
77117;SDS011;66072;50.238;19.228;2023-05-02T02:45:15;19.60;;;14.20;;
77117;SDS011;66072;50.238;19.228;2023-05-02T02:48:07;18.20;;;13.80;;
77117;SDS011;66072;50.238;19.228;2023-05-02T02:50:50;16.40;;;12.60;;
77117;SDS011;66072;50.238;19.228;2023-05-02T02:53:45;14.80;;;10.70;;
77117;SDS011;66072;50.238;19.228;2023-05-02T02:56:14;15.70;;;10.40;;
77117;SDS011;66072;50.238;19.228;2023-05-02T02:58:53;11.80;;;7.70;;
77117;SDS011;66072;50.238;19.228;2023-05-02T03:01:24;12.80;;;7.90;;
77117;SDS011;66072;50.238;19.228;2023-05-02T03:03:57;17.90;;;9.80;;
77117;SDS011;66072;50.238;19.228;2023-05-02T03:06:25;16.10;;;9.20;;
77117;SDS011;66072;50.238;19.228;2023-05-02T03:08:52;12.50;;;7.80;;
77117;SDS011;66072;50.238;19.228;2023-05-02T03:11:20;8.10;;;6.00;;
77117;SDS011;66072;50.238;19.228;2023-05-02T03:13:48;11.50;;;6.30;;
77117;SDS011;66072;50.238;19.228;2023-05-02T03:16:35;12.10;;;6.80;;
77117;SDS011;66072;50.238;19.228;2023-05-02T03:19:04;9.10;;;5.60;;
77117;SDS011;66072;50.238;19.228;2023-05-02T03:21:33;9.60;;;6.10;;
77117;SDS011;66072;50.238;19.228;2023-05-02T03:24:01;9.30;;;5.20;;
77117;SDS011;66072;50.238;19.228;2023-05-02T03:26:30;8.80;;;5.20;;
77117;SDS011;66072;50.238;19.228;2023-05-02T03:28:58;8.60;;;5.60;;
77117;SDS011;66072;50.238;19.228;2023-05-02T03:31:25;8.40;;;5.10;;
77117;SDS011;66072;50.238;19.228;2023-05-02T03:33:53;7.40;;;4.60;;
77117;SDS011;66072;50.238;19.228;2023-05-02T03:36:21;8.50;;;5.10;;
77117;SDS011;66072;50.238;19.228;2023-05-02T03:38:48;8.70;;;4.60;;
77117;SDS011;66072;50.238;19.228;2023-05-02T03:41:16;8.50;;;4.70;;
77117;SDS011;66072;50.238;19.228;2023-05-02T03:43:44;7.70;;;4.80;;
77117;SDS011;66072;50.238;19.228;2023-05-02T03:46:11;7.40;;;4.90;;
77117;SDS011;66072;50.238;19.228;2023-05-02T03:48:39;8.50;;;4.90;;
77117;SDS011;66072;50.238;19.228;2023-05-02T03:51:06;10.20;;;5.30;;
77117;SDS011;66072;50.238;19.228;2023-05-02T03:53:34;8.90;;;4.60;;
77117;SDS011;66072;50.238;19.228;2023-05-02T03:56:02;7.60;;;4.60;;
77117;SDS011;66072;50.238;19.228;2023-05-02T03:58:30;7.70;;;5.00;;
77117;SDS011;66072;50.238;19.228;2023-05-02T04:00:57;6.70;;;4.00;;
77117;SDS011;66072;50.238;19.228;2023-05-02T04:03:25;7.10;;;4.40;;
77117;SDS011;66072;50.238;19.228;2023-05-02T04:05:56;8.00;;;4.80;;
77117;SDS011;66072;50.238;19.228;2023-05-02T04:08:23;8.40;;;4.80;;
77117;SDS011;66072;50.238;19.228;2023-05-02T04:10:51;7.90;;;5.20;;
77117;SDS011;66072;50.238;19.228;2023-05-02T04:13:18;7.10;;;4.50;;
77117;SDS011;66072;50.238;19.228;2023-05-02T04:15:46;9.50;;;4.80;;
77117;SDS011;66072;50.238;19.228;2023-05-02T04:18:14;7.00;;;4.70;;
77117;SDS011;66072;50.238;19.228;2023-05-02T04:20:42;5.50;;;4.00;;
77117;SDS011;66072;50.238;19.228;2023-05-02T04:23:10;7.50;;;4.60;;
77117;SDS011;66072;50.238;19.228;2023-05-02T04:25:37;6.50;;;4.40;;
77117;SDS011;66072;50.238;19.228;2023-05-02T04:28:05;7.60;;;5.20;;
77117;SDS011;66072;50.238;19.228;2023-05-02T04:30:32;9.20;;;5.60;;
77117;SDS011;66072;50.238;19.228;2023-05-02T04:33:00;6.70;;;4.70;;
77117;SDS011;66072;50.238;19.228;2023-05-02T04:35:28;8.40;;;4.30;;
77117;SDS011;66072;50.238;19.228;2023-05-02T04:37:55;6.90;;;4.50;;
77117;SDS011;66072;50.238;19.228;2023-05-02T04:40:23;7.20;;;4.20;;
77117;SDS011;66072;50.238;19.228;2023-05-02T04:42:50;7.80;;;4.60;;
77117;SDS011;66072;50.238;19.228;2023-05-02T04:45:18;6.40;;;4.40;;
77117;SDS011;66072;50.238;19.228;2023-05-02T04:47:46;5.80;;;3.70;;
77117;SDS011;66072;50.238;19.228;2023-05-02T04:50:13;7.20;;;4.20;;
77117;SDS011;66072;50.238;19.228;2023-05-02T04:52:41;7.50;;;4.20;;
77117;SDS011;66072;50.238;19.228;2023-05-02T04:55:09;7.30;;;4.30;;
77117;SDS011;66072;50.238;19.228;2023-05-02T04:57:36;6.30;;;4.20;;
77117;SDS011;66072;50.238;19.228;2023-05-02T05:00:04;6.10;;;3.70;;
77117;SDS011;66072;50.238;19.228;2023-05-02T05:02:32;6.40;;;3.70;;
77117;SDS011;66072;50.238;19.228;2023-05-02T05:05:00;5.20;;;3.50;;
77117;SDS011;66072;50.238;19.228;2023-05-02T05:07:28;6.00;;;3.60;;
77117;SDS011;66072;50.238;19.228;2023-05-02T05:09:55;5.50;;;3.50;;
77117;SDS011;66072;50.238;19.228;2023-05-02T05:12:23;6.80;;;3.80;;
77117;SDS011;66072;50.238;19.228;2023-05-02T05:14:51;7.00;;;3.60;;
77117;SDS011;66072;50.238;19.228;2023-05-02T05:17:19;4.90;;;3.10;;
77117;SDS011;66072;50.238;19.228;2023-05-02T05:19:46;8.90;;;4.10;;
77117;SDS011;66072;50.238;19.228;2023-05-02T05:22:14;6.60;;;3.80;;
77117;SDS011;66072;50.238;19.228;2023-05-02T05:24:41;5.60;;;3.80;;
77117;SDS011;66072;50.238;19.228;2023-05-02T05:27:09;5.80;;;3.30;;
77117;SDS011;66072;50.238;19.228;2023-05-02T05:29:36;6.50;;;3.50;;
77117;SDS011;66072;50.238;19.228;2023-05-02T05:32:04;7.60;;;4.10;;
77117;SDS011;66072;50.238;19.228;2023-05-02T05:34:32;6.40;;;3.50;;
77117;SDS011;66072;50.238;19.228;2023-05-02T05:36:59;7.00;;;4.10;;
77117;SDS011;66072;50.238;19.228;2023-05-02T05:39:27;5.20;;;3.20;;
77117;SDS011;66072;50.238;19.228;2023-05-02T05:41:55;5.10;;;3.30;;
77117;SDS011;66072;50.238;19.228;2023-05-02T05:44:22;5.70;;;3.40;;
77117;SDS011;66072;50.238;19.228;2023-05-02T05:46:50;5.10;;;3.60;;
77117;SDS011;66072;50.238;19.228;2023-05-02T05:49:17;7.20;;;3.40;;
77117;SDS011;66072;50.238;19.228;2023-05-02T05:51:45;6.70;;;4.00;;
77117;SDS011;66072;50.238;19.228;2023-05-02T05:54:12;6.50;;;3.20;;
77117;SDS011;66072;50.238;19.228;2023-05-02T05:56:40;4.90;;;2.50;;
77117;SDS011;66072;50.238;19.228;2023-05-02T05:59:08;6.80;;;3.00;;
77117;SDS011;66072;50.238;19.228;2023-05-02T06:01:35;5.80;;;3.30;;
77117;SDS011;66072;50.238;19.228;2023-05-02T06:04:03;6.60;;;3.50;;
77117;SDS011;66072;50.238;19.228;2023-05-02T06:06:31;5.70;;;3.80;;
77117;SDS011;66072;50.238;19.228;2023-05-02T06:08:59;6.40;;;3.90;;
77117;SDS011;66072;50.238;19.228;2023-05-02T06:11:27;7.70;;;4.20;;
77117;SDS011;66072;50.238;19.228;2023-05-02T06:13:55;6.80;;;3.40;;
77117;SDS011;66072;50.238;19.228;2023-05-02T06:16:22;5.90;;;3.40;;
77117;SDS011;66072;50.238;19.228;2023-05-02T06:18:50;4.60;;;3.20;;
77117;SDS011;66072;50.238;19.228;2023-05-02T06:21:18;6.00;;;3.30;;
77117;SDS011;66072;50.238;19.228;2023-05-02T06:23:45;5.10;;;3.30;;
77117;SDS011;66072;50.238;19.228;2023-05-02T06:26:13;7.30;;;3.90;;
77117;SDS011;66072;50.238;19.228;2023-05-02T06:28:41;6.60;;;4.00;;
77117;SDS011;66072;50.238;19.228;2023-05-02T06:31:08;6.80;;;4.00;;
77117;SDS011;66072;50.238;19.228;2023-05-02T06:33:36;5.80;;;3.60;;
77117;SDS011;66072;50.238;19.228;2023-05-02T06:36:04;6.10;;;4.30;;
77117;SDS011;66072;50.238;19.228;2023-05-02T06:38:31;5.50;;;3.50;;
77117;SDS011;66072;50.238;19.228;2023-05-02T06:40:59;7.20;;;3.90;;
77117;SDS011;66072;50.238;19.228;2023-05-02T06:43:27;4.70;;;3.00;;
77117;SDS011;66072;50.238;19.228;2023-05-02T06:45:54;6.30;;;3.30;;
77117;SDS011;66072;50.238;19.228;2023-05-02T06:48:22;4.60;;;2.60;;
77117;SDS011;66072;50.238;19.228;2023-05-02T06:50:50;5.70;;;4.10;;
77117;SDS011;66072;50.238;19.228;2023-05-02T06:53:18;7.00;;;3.90;;
77117;SDS011;66072;50.238;19.228;2023-05-02T06:55:46;5.50;;;3.70;;
77117;SDS011;66072;50.238;19.228;2023-05-02T06:58:15;6.90;;;4.00;;
77117;SDS011;66072;50.238;19.228;2023-05-02T07:00:42;6.80;;;4.00;;
77117;SDS011;66072;50.238;19.228;2023-05-02T07:03:10;5.70;;;3.60;;
77117;SDS011;66072;50.238;19.228;2023-05-02T07:05:38;5.70;;;3.20;;
77117;SDS011;66072;50.238;19.228;2023-05-02T07:08:05;6.10;;;3.70;;
77117;SDS011;66072;50.238;19.228;2023-05-02T07:10:33;7.50;;;4.10;;
77117;SDS011;66072;50.238;19.228;2023-05-02T07:13:01;5.70;;;3.70;;
77117;SDS011;66072;50.238;19.228;2023-05-02T07:15:29;7.60;;;4.40;;
77117;SDS011;66072;50.238;19.228;2023-05-02T07:17:56;7.40;;;4.00;;
77117;SDS011;66072;50.238;19.228;2023-05-02T07:20:24;5.30;;;3.10;;
77117;SDS011;66072;50.238;19.228;2023-05-02T07:22:52;6.40;;;4.10;;
77117;SDS011;66072;50.238;19.228;2023-05-02T07:25:20;7.40;;;4.10;;
77117;SDS011;66072;50.238;19.228;2023-05-02T07:27:47;5.80;;;3.50;;
77117;SDS011;66072;50.238;19.228;2023-05-02T07:30:15;6.30;;;4.70;;
77117;SDS011;66072;50.238;19.228;2023-05-02T07:32:43;5.70;;;3.80;;
77117;SDS011;66072;50.238;19.228;2023-05-02T07:35:11;8.80;;;4.70;;
77117;SDS011;66072;50.238;19.228;2023-05-02T07:37:39;6.10;;;3.40;;
77117;SDS011;66072;50.238;19.228;2023-05-02T07:40:06;5.80;;;3.30;;
77117;SDS011;66072;50.238;19.228;2023-05-02T07:42:35;5.50;;;2.90;;
77117;SDS011;66072;50.238;19.228;2023-05-02T07:45:02;5.50;;;3.10;;
77117;SDS011;66072;50.238;19.228;2023-05-02T07:47:30;4.50;;;2.80;;
77117;SDS011;66072;50.238;19.228;2023-05-02T07:49:58;5.00;;;3.10;;
77117;SDS011;66072;50.238;19.228;2023-05-02T07:52:26;4.80;;;3.40;;
77117;SDS011;66072;50.238;19.228;2023-05-02T07:54:54;6.20;;;3.70;;
77117;SDS011;66072;50.238;19.228;2023-05-02T07:57:21;4.90;;;3.00;;
77117;SDS011;66072;50.238;19.228;2023-05-02T07:59:49;5.90;;;3.00;;
77117;SDS011;66072;50.238;19.228;2023-05-02T08:02:17;4.00;;;2.70;;
77117;SDS011;66072;50.238;19.228;2023-05-02T08:04:46;4.40;;;2.80;;
77117;SDS011;66072;50.238;19.228;2023-05-02T08:07:14;4.70;;;3.00;;
77117;SDS011;66072;50.238;19.228;2023-05-02T08:09:42;4.10;;;2.20;;
77117;SDS011;66072;50.238;19.228;2023-05-02T08:12:09;3.50;;;2.30;;
77117;SDS011;66072;50.238;19.228;2023-05-02T08:14:37;4.50;;;2.30;;
77117;SDS011;66072;50.238;19.228;2023-05-02T08:17:04;3.50;;;2.10;;
77117;SDS011;66072;50.238;19.228;2023-05-02T08:19:32;5.10;;;2.10;;
77117;SDS011;66072;50.238;19.228;2023-05-02T08:22:00;3.80;;;2.00;;
77117;SDS011;66072;50.238;19.228;2023-05-02T08:24:27;3.20;;;1.90;;
77117;SDS011;66072;50.238;19.228;2023-05-02T08:26:55;4.30;;;2.00;;
77117;SDS011;66072;50.238;19.228;2023-05-02T08:29:23;3.80;;;2.00;;
77117;SDS011;66072;50.238;19.228;2023-05-02T08:31:50;3.60;;;1.80;;
77117;SDS011;66072;50.238;19.228;2023-05-02T08:34:18;3.80;;;2.00;;
77117;SDS011;66072;50.238;19.228;2023-05-02T08:36:46;3.50;;;1.70;;
77117;SDS011;66072;50.238;19.228;2023-05-02T08:39:14;3.50;;;2.00;;
77117;SDS011;66072;50.238;19.228;2023-05-02T08:41:41;4.70;;;2.00;;
77117;SDS011;66072;50.238;19.228;2023-05-02T08:44:09;4.90;;;1.90;;
77117;SDS011;66072;50.238;19.228;2023-05-02T08:46:39;3.90;;;2.00;;
77117;SDS011;66072;50.238;19.228;2023-05-02T08:49:11;3.60;;;1.60;;
77117;SDS011;66072;50.238;19.228;2023-05-02T08:51:41;3.50;;;2.10;;
77117;SDS011;66072;50.238;19.228;2023-05-02T08:54:11;4.40;;;2.20;;
77117;SDS011;66072;50.238;19.228;2023-05-02T08:56:43;4.50;;;2.00;;
77117;SDS011;66072;50.238;19.228;2023-05-02T08:59:11;3.40;;;1.90;;
77117;SDS011;66072;50.238;19.228;2023-05-02T09:01:38;4.20;;;2.00;;
77117;SDS011;66072;50.238;19.228;2023-05-02T09:04:09;3.50;;;2.10;;
77117;SDS011;66072;50.238;19.228;2023-05-02T09:06:38;4.70;;;2.20;;
77117;SDS011;66072;50.238;19.228;2023-05-02T09:09:05;4.30;;;2.60;;
77117;SDS011;66072;50.238;19.228;2023-05-02T09:11:33;4.30;;;2.40;;
77117;SDS011;66072;50.238;19.228;2023-05-02T09:14:00;4.00;;;1.80;;
77117;SDS011;66072;50.238;19.228;2023-05-02T09:16:40;4.10;;;2.50;;
77117;SDS011;66072;50.238;19.228;2023-05-02T09:19:07;5.90;;;3.00;;
77117;SDS011;66072;50.238;19.228;2023-05-02T09:21:39;5.10;;;2.10;;
77117;SDS011;66072;50.238;19.228;2023-05-02T09:24:17;5.50;;;2.60;;
77117;SDS011;66072;50.238;19.228;2023-05-02T09:26:55;3.40;;;2.10;;
77117;SDS011;66072;50.238;19.228;2023-05-02T09:29:27;5.50;;;2.70;;
77117;SDS011;66072;50.238;19.228;2023-05-02T09:31:56;5.10;;;2.30;;
77117;SDS011;66072;50.238;19.228;2023-05-02T09:34:23;5.20;;;2.60;;
77117;SDS011;66072;50.238;19.228;2023-05-02T09:36:51;4.50;;;2.70;;
77117;SDS011;66072;50.238;19.228;2023-05-02T09:39:20;4.60;;;2.90;;
77117;SDS011;66072;50.238;19.228;2023-05-02T09:41:52;5.00;;;2.80;;
77117;SDS011;66072;50.238;19.228;2023-05-02T09:44:21;5.50;;;3.10;;
77117;SDS011;66072;50.238;19.228;2023-05-02T09:46:53;4.20;;;2.30;;
77117;SDS011;66072;50.238;19.228;2023-05-02T09:52:13;6.10;;;2.70;;
77117;SDS011;66072;50.238;19.228;2023-05-02T09:54:42;4.00;;;2.10;;
77117;SDS011;66072;50.238;19.228;2023-05-02T09:57:10;3.30;;;2.00;;
77117;SDS011;66072;50.238;19.228;2023-05-02T09:59:38;3.60;;;2.30;;
77117;SDS011;66072;50.238;19.228;2023-05-02T10:02:06;3.50;;;2.10;;
77117;SDS011;66072;50.238;19.228;2023-05-02T10:04:35;4.20;;;2.70;;
77117;SDS011;66072;50.238;19.228;2023-05-02T10:07:03;3.50;;;2.00;;
77117;SDS011;66072;50.238;19.228;2023-05-02T10:09:31;3.50;;;2.30;;
77117;SDS011;66072;50.238;19.228;2023-05-02T10:12:02;3.70;;;2.00;;
77117;SDS011;66072;50.238;19.228;2023-05-02T10:14:30;3.10;;;1.90;;
77117;SDS011;66072;50.238;19.228;2023-05-02T10:29:34;3.40;;;2.10;;
77117;SDS011;66072;50.238;19.228;2023-05-02T10:32:03;3.40;;;1.70;;
77117;SDS011;66072;50.238;19.228;2023-05-02T10:34:33;3.50;;;2.00;;
77117;SDS011;66072;50.238;19.228;2023-05-02T10:37:01;4.40;;;2.50;;
77117;SDS011;66072;50.238;19.228;2023-05-02T10:39:29;3.60;;;2.20;;
77117;SDS011;66072;50.238;19.228;2023-05-02T10:41:59;4.60;;;2.40;;
77117;SDS011;66072;50.238;19.228;2023-05-02T10:44:36;3.90;;;2.40;;
77117;SDS011;66072;50.238;19.228;2023-05-02T10:47:19;8.80;;;2.50;;
77117;SDS011;66072;50.238;19.228;2023-05-02T10:50:01;4.70;;;2.30;;
77117;SDS011;66072;50.238;19.228;2023-05-02T10:52:31;3.70;;;2.10;;
77117;SDS011;66072;50.238;19.228;2023-05-02T10:55:21;9.30;;;3.10;;
77117;SDS011;66072;50.238;19.228;2023-05-02T11:00:29;4.50;;;2.00;;
77117;SDS011;66072;50.238;19.228;2023-05-02T11:02:58;4.80;;;3.20;;
77117;SDS011;66072;50.238;19.228;2023-05-02T11:05:27;4.20;;;3.30;;
77117;SDS011;66072;50.238;19.228;2023-05-02T11:10:49;5.70;;;3.90;;
77117;SDS011;66072;50.238;19.228;2023-05-02T11:13:28;6.70;;;3.60;;
77117;SDS011;66072;50.238;19.228;2023-05-02T11:16:17;5.40;;;3.10;;
77117;SDS011;66072;50.238;19.228;2023-05-02T11:18:57;4.90;;;3.90;;
77117;SDS011;66072;50.238;19.228;2023-05-02T11:21:26;5.30;;;3.40;;
77117;SDS011;66072;50.238;19.228;2023-05-02T11:30:03;6.00;;;4.30;;
77117;SDS011;66072;50.238;19.228;2023-05-02T11:35:18;6.30;;;3.90;;
77117;SDS011;66072;50.238;19.228;2023-05-02T11:40:20;7.50;;;4.80;;
77117;SDS011;66072;50.238;19.228;2023-05-02T11:42:49;4.80;;;3.60;;
77117;SDS011;66072;50.238;19.228;2023-05-02T11:45:16;5.00;;;3.50;;
77117;SDS011;66072;50.238;19.228;2023-05-02T11:47:45;5.10;;;3.70;;
77117;SDS011;66072;50.238;19.228;2023-05-02T11:52:43;7.50;;;4.40;;
77117;SDS011;66072;50.238;19.228;2023-05-02T11:55:12;6.80;;;4.20;;
77117;SDS011;66072;50.238;19.228;2023-05-02T11:57:41;5.40;;;4.10;;
77117;SDS011;66072;50.238;19.228;2023-05-02T12:00:09;6.40;;;4.90;;
77117;SDS011;66072;50.238;19.228;2023-05-02T12:02:44;7.20;;;4.60;;
77117;SDS011;66072;50.238;19.228;2023-05-02T12:05:13;7.80;;;3.60;;
77117;SDS011;66072;50.238;19.228;2023-05-02T12:07:45;6.00;;;3.90;;
77117;SDS011;66072;50.238;19.228;2023-05-02T12:10:13;7.70;;;5.10;;
77117;SDS011;66072;50.238;19.228;2023-05-02T12:12:42;5.90;;;3.80;;
77117;SDS011;66072;50.238;19.228;2023-05-02T12:15:11;6.10;;;4.10;;
77117;SDS011;66072;50.238;19.228;2023-05-02T12:17:46;5.50;;;4.10;;
77117;SDS011;66072;50.238;19.228;2023-05-02T12:20:15;8.20;;;5.20;;
77117;SDS011;66072;50.238;19.228;2023-05-02T12:22:43;5.30;;;4.60;;
77117;SDS011;66072;50.238;19.228;2023-05-02T12:25:11;5.90;;;4.30;;
77117;SDS011;66072;50.238;19.228;2023-05-02T12:27:39;6.80;;;4.40;;
77117;SDS011;66072;50.238;19.228;2023-05-02T12:30:07;8.90;;;5.00;;
77117;SDS011;66072;50.238;19.228;2023-05-02T12:32:35;4.20;;;2.80;;
77117;SDS011;66072;50.238;19.228;2023-05-02T12:35:02;6.90;;;5.30;;
77117;SDS011;66072;50.238;19.228;2023-05-02T12:37:30;6.40;;;4.60;;
77117;SDS011;66072;50.238;19.228;2023-05-02T12:39:58;5.60;;;4.20;;
77117;SDS011;66072;50.238;19.228;2023-05-02T12:42:26;6.80;;;4.80;;
77117;SDS011;66072;50.238;19.228;2023-05-02T12:44:54;6.20;;;4.90;;
77117;SDS011;66072;50.238;19.228;2023-05-02T12:47:22;7.10;;;5.10;;
77117;SDS011;66072;50.238;19.228;2023-05-02T12:49:56;6.60;;;5.10;;
77117;SDS011;66072;50.238;19.228;2023-05-02T12:52:44;6.30;;;4.60;;
77117;SDS011;66072;50.238;19.228;2023-05-02T12:55:19;5.20;;;4.40;;
77117;SDS011;66072;50.238;19.228;2023-05-02T13:02:44;5.50;;;4.00;;
77117;SDS011;66072;50.238;19.228;2023-05-02T13:05:14;4.90;;;4.10;;
77117;SDS011;66072;50.238;19.228;2023-05-02T13:07:43;6.60;;;4.40;;
77117;SDS011;66072;50.238;19.228;2023-05-02T13:10:11;5.50;;;4.00;;
77117;SDS011;66072;50.238;19.228;2023-05-02T13:12:39;3.90;;;2.80;;
77117;SDS011;66072;50.238;19.228;2023-05-02T13:15:07;4.40;;;3.20;;
77117;SDS011;66072;50.238;19.228;2023-05-02T13:17:35;5.00;;;3.30;;
77117;SDS011;66072;50.238;19.228;2023-05-02T13:20:03;6.20;;;3.50;;
77117;SDS011;66072;50.238;19.228;2023-05-02T13:22:31;6.50;;;3.80;;
77117;SDS011;66072;50.238;19.228;2023-05-02T13:24:59;4.60;;;3.60;;
77117;SDS011;66072;50.238;19.228;2023-05-02T13:27:26;4.20;;;2.70;;
77117;SDS011;66072;50.238;19.228;2023-05-02T13:29:54;5.10;;;4.00;;
77117;SDS011;66072;50.238;19.228;2023-05-02T13:32:22;5.30;;;3.80;;
77117;SDS011;66072;50.238;19.228;2023-05-02T13:34:50;5.40;;;3.40;;
77117;SDS011;66072;50.238;19.228;2023-05-02T13:37:17;4.40;;;3.60;;
77117;SDS011;66072;50.238;19.228;2023-05-02T13:39:45;3.50;;;2.60;;
77117;SDS011;66072;50.238;19.228;2023-05-02T13:42:12;4.10;;;2.70;;
77117;SDS011;66072;50.238;19.228;2023-05-02T13:44:40;4.60;;;2.50;;
77117;SDS011;66072;50.238;19.228;2023-05-02T13:47:07;5.20;;;3.40;;
77117;SDS011;66072;50.238;19.228;2023-05-02T13:49:35;5.70;;;3.20;;
77117;SDS011;66072;50.238;19.228;2023-05-02T13:52:03;5.80;;;3.50;;
77117;SDS011;66072;50.238;19.228;2023-05-02T13:54:30;6.10;;;3.70;;
77117;SDS011;66072;50.238;19.228;2023-05-02T13:56:58;5.20;;;3.20;;
77117;SDS011;66072;50.238;19.228;2023-05-02T13:59:26;4.80;;;2.90;;
77117;SDS011;66072;50.238;19.228;2023-05-02T14:01:53;5.10;;;3.00;;
77117;SDS011;66072;50.238;19.228;2023-05-02T14:04:21;5.40;;;3.50;;
77117;SDS011;66072;50.238;19.228;2023-05-02T14:06:50;5.20;;;3.20;;
77117;SDS011;66072;50.238;19.228;2023-05-02T14:09:17;5.40;;;3.40;;
77117;SDS011;66072;50.238;19.228;2023-05-02T14:11:45;5.10;;;3.40;;
77117;SDS011;66072;50.238;19.228;2023-05-02T14:14:12;4.90;;;3.00;;
77117;SDS011;66072;50.238;19.228;2023-05-02T14:16:40;4.90;;;2.70;;
77117;SDS011;66072;50.238;19.228;2023-05-02T14:19:08;5.50;;;3.10;;
77117;SDS011;66072;50.238;19.228;2023-05-02T14:21:36;6.20;;;3.30;;
77117;SDS011;66072;50.238;19.228;2023-05-02T14:24:04;5.30;;;3.20;;
77117;SDS011;66072;50.238;19.228;2023-05-02T14:26:32;4.60;;;2.60;;
77117;SDS011;66072;50.238;19.228;2023-05-02T14:29:00;4.00;;;2.40;;
77117;SDS011;66072;50.238;19.228;2023-05-02T14:31:27;4.00;;;2.30;;
77117;SDS011;66072;50.238;19.228;2023-05-02T14:33:55;4.50;;;2.70;;
77117;SDS011;66072;50.238;19.228;2023-05-02T14:36:23;3.70;;;2.40;;
77117;SDS011;66072;50.238;19.228;2023-05-02T14:38:50;4.30;;;2.10;;
77117;SDS011;66072;50.238;19.228;2023-05-02T14:41:18;4.50;;;1.80;;
77117;SDS011;66072;50.238;19.228;2023-05-02T14:43:45;3.70;;;2.50;;
77117;SDS011;66072;50.238;19.228;2023-05-02T14:46:13;3.00;;;1.50;;
77117;SDS011;66072;50.238;19.228;2023-05-02T14:48:40;4.40;;;1.70;;
77117;SDS011;66072;50.238;19.228;2023-05-02T14:51:08;3.40;;;1.80;;
77117;SDS011;66072;50.238;19.228;2023-05-02T14:53:35;3.00;;;1.80;;
77117;SDS011;66072;50.238;19.228;2023-05-02T14:56:03;3.20;;;1.60;;
77117;SDS011;66072;50.238;19.228;2023-05-02T14:58:31;3.40;;;1.70;;
77117;SDS011;66072;50.238;19.228;2023-05-02T15:00:59;3.00;;;1.50;;
77117;SDS011;66072;50.238;19.228;2023-05-02T15:03:26;3.20;;;1.30;;
77117;SDS011;66072;50.238;19.228;2023-05-02T15:05:55;2.50;;;1.00;;
77117;SDS011;66072;50.238;19.228;2023-05-02T15:08:22;2.40;;;1.30;;
77117;SDS011;66072;50.238;19.228;2023-05-02T15:10:50;4.00;;;2.00;;
77117;SDS011;66072;50.238;19.228;2023-05-02T15:13:18;2.90;;;1.80;;
77117;SDS011;66072;50.238;19.228;2023-05-02T15:15:45;3.20;;;1.40;;
77117;SDS011;66072;50.238;19.228;2023-05-02T15:18:13;3.60;;;1.60;;
77117;SDS011;66072;50.238;19.228;2023-05-02T15:20:41;3.40;;;1.80;;
77117;SDS011;66072;50.238;19.228;2023-05-02T15:23:09;3.00;;;1.40;;
77117;SDS011;66072;50.238;19.228;2023-05-02T15:25:36;2.50;;;1.40;;
77117;SDS011;66072;50.238;19.228;2023-05-02T15:28:04;2.90;;;1.40;;
77117;SDS011;66072;50.238;19.228;2023-05-02T15:30:32;2.50;;;1.30;;
77117;SDS011;66072;50.238;19.228;2023-05-02T15:33:00;3.00;;;1.30;;
77117;SDS011;66072;50.238;19.228;2023-05-02T15:35:28;3.50;;;1.50;;
77117;SDS011;66072;50.238;19.228;2023-05-02T15:37:55;3.90;;;1.70;;